createdAt,value
2022-09-13T00:01:47.697Z,75.95
2022-09-13T00:04:49.171Z,76.20
2022-09-13T00:07:50.736Z,76.60
2022-09-13T00:10:52.134Z,76.46
2022-09-13T00:13:54.383Z,77.91
2022-09-13T00:16:55.761Z,77.54
2022-09-13T00:19:57.230Z,76.14
2022-09-13T00:22:58.596Z,77.13
2022-09-13T00:26:09.282Z,77.14
2022-09-13T00:29:10.641Z,77.61
2022-09-13T00:32:12.326Z,79.10
2022-09-13T00:35:13.722Z,77.56
2022-09-13T00:38:15.106Z,78.36
2022-09-13T00:41:18.646Z,78.87
2022-09-13T00:44:56.044Z,78.54
2022-09-13T00:48:03.085Z,78.93
2022-09-13T00:51:07.177Z,78.29
2022-09-13T00:54:09.584Z,77.86
2022-09-13T00:57:13.984Z,78.74
2022-09-13T01:00:19.284Z,79.64
2022-09-13T01:03:23.748Z,79.23
2022-09-13T01:06:32.940Z,78.75
2022-09-13T01:09:38.132Z,78.80
2022-09-13T01:12:48.363Z,79.17
2022-09-13T01:15:49.999Z,79.91
2022-09-13T01:18:51.369Z,80.62
2022-09-13T01:21:58.764Z,81.95
2022-09-13T01:25:28.227Z,80.75
2022-09-13T01:28:41.288Z,81.16
2022-09-13T01:31:50.093Z,81.09
2022-09-13T01:35:06.331Z,80.79
2022-09-13T01:38:15.042Z,81.78
2022-09-13T01:41:32.695Z,82.42
2022-09-13T01:44:55.147Z,81.85
2022-09-13T01:48:02.901Z,83.99
2022-09-13T01:51:13.465Z,84.17
2022-09-13T01:54:45.358Z,84.56
2022-09-13T01:58:11.401Z,83.18
2022-09-13T02:01:18.419Z,83.51
2022-09-13T02:04:24.429Z,85.40
2022-09-13T02:07:40.749Z,84.64
2022-09-13T02:10:48.482Z,84.20
2022-09-13T02:14:07.217Z,83.83
2022-09-13T02:17:13.514Z,85.81
2022-09-13T02:20:25.806Z,86.77
2022-09-13T02:23:37.860Z,86.83
2022-09-13T02:26:41.737Z,86.66
2022-09-13T02:29:47.306Z,87.17
2022-09-13T02:32:52.614Z,86.18
2022-09-13T02:36:04.341Z,86.96
2022-09-13T02:39:13.054Z,87.08
2022-09-13T02:42:19.659Z,86.78
2022-09-13T02:45:25.874Z,87.10
2022-09-13T02:48:56.477Z,89.01
2022-09-13T02:52:04.991Z,88.60
2022-09-13T02:55:38.163Z,87.89
2022-09-13T02:59:13.325Z,88.08
2022-09-13T03:02:19.156Z,88.43
2022-09-13T03:05:20.596Z,88.74
2022-09-13T03:08:23.315Z,88.20
2022-09-13T03:11:49.402Z,88.36
2022-09-13T03:15:18.732Z,88.16
2022-09-13T03:18:48.261Z,88.67
2022-09-13T03:22:15.753Z,88.84
2022-09-13T03:25:39.430Z,89.08
2022-09-13T03:28:54.873Z,88.94
2022-09-13T03:32:03.239Z,89.42
2022-09-13T03:35:22.709Z,88.77
2022-09-13T03:38:38.284Z,89.48
2022-09-13T03:41:46.520Z,89.92
2022-09-13T03:44:50.519Z,89.51
2022-09-13T03:47:52.411Z,88.56
2022-09-13T03:50:54.244Z,89.45
2022-09-13T03:54:00.579Z,89.29
2022-09-13T03:57:22.314Z,91.10
2022-09-13T04:00:24.111Z,91.75
2022-09-13T04:03:27.336Z,91.69
2022-09-13T04:06:28.717Z,92.32
2022-09-13T04:09:31.407Z,92.28
2022-09-13T04:12:32.776Z,92.78
2022-09-13T04:15:34.156Z,93.93
2022-09-13T04:18:35.613Z,94.28
2022-09-13T04:21:38.068Z,93.26
2022-09-13T04:24:39.919Z,93.57
2022-09-13T04:27:41.367Z,94.14
2022-09-13T04:30:46.858Z,94.10
2022-09-13T04:33:49.448Z,93.30
2022-09-13T04:36:52.400Z,92.97
2022-09-13T04:39:53.820Z,93.16
2022-09-13T04:42:55.219Z,93.43
2022-09-13T04:46:00.988Z,93.93
2022-09-13T04:49:03.111Z,93.09
2022-09-13T04:52:04.474Z,92.93
2022-09-13T04:55:06.812Z,92.60
2022-09-13T04:58:08.193Z,91.59
2022-09-13T05:01:10.693Z,93.21
2022-09-13T05:04:12.419Z,92.13
2022-09-13T05:07:13.786Z,92.92
2022-09-13T05:10:19.431Z,91.91
2022-09-13T05:13:21.125Z,92.46
2022-09-13T05:16:33.197Z,93.42
2022-09-13T05:19:34.993Z,92.48
2022-09-13T05:22:36.359Z,92.76
2022-09-13T05:25:37.737Z,93.10
2022-09-13T05:28:39.151Z,93.01
2022-09-13T05:31:42.209Z,93.46
2022-09-13T05:34:44.337Z,91.89
2022-09-13T05:37:45.780Z,92.43
2022-09-13T05:40:47.572Z,93.72
2022-09-13T05:43:49.129Z,92.73
2022-09-13T05:46:50.487Z,93.40
2022-09-13T05:50:09.380Z,92.71
2022-09-13T05:53:12.025Z,93.64
2022-09-13T05:56:16.912Z,92.72
2022-09-13T05:59:18.339Z,92.85
2022-09-13T06:02:19.743Z,92.53
2022-09-13T06:05:21.182Z,92.98
2022-09-13T06:08:24.096Z,92.58
2022-09-13T06:11:26.678Z,93.33
2022-09-13T06:14:28.104Z,92.77
2022-09-13T06:17:29.464Z,92.71
2022-09-13T06:20:30.977Z,93.01
2022-09-13T06:23:32.349Z,91.79
2022-09-13T06:26:33.801Z,91.94
2022-09-13T06:29:35.163Z,91.55
2022-09-13T06:32:36.528Z,91.71
2022-09-13T06:35:37.945Z,90.60
2022-09-13T06:38:39.351Z,90.08
2022-09-13T06:41:40.945Z,90.42
2022-09-13T06:44:42.315Z,90.12
2022-09-13T06:47:43.679Z,90.15
2022-09-13T06:50:45.735Z,90.05
2022-09-13T06:53:48.437Z,89.73
2022-09-13T06:56:49.870Z,89.48
2022-09-13T06:59:51.363Z,89.71
2022-09-13T07:02:52.786Z,90.12
2022-09-13T07:05:54.177Z,89.44
2022-09-13T07:08:57.220Z,89.71
2022-09-13T07:11:58.608Z,89.51
2022-09-13T07:14:59.970Z,88.96
2022-09-13T07:18:01.409Z,88.92
2022-09-13T07:21:08.346Z,89.42
2022-09-13T07:24:10.418Z,89.00
2022-09-13T07:27:12.784Z,88.55
2022-09-13T07:30:14.523Z,89.17
2022-09-13T07:33:16.405Z,88.54
2022-09-13T07:36:17.791Z,88.28
2022-09-13T07:39:22.279Z,88.54
2022-09-13T07:42:23.978Z,87.29
2022-09-13T07:45:25.451Z,86.73
2022-09-13T07:48:33.255Z,86.24
2022-09-13T07:51:36.942Z,86.05
2022-09-13T07:54:38.347Z,86.30
2022-09-13T07:57:39.719Z,85.01
2022-09-13T08:00:41.080Z,83.21
2022-09-13T08:03:42.711Z,83.21
2022-09-13T08:06:44.686Z,81.59
2022-09-13T08:09:46.191Z,81.82
2022-09-13T08:12:50.270Z,82.57
2022-09-13T08:15:51.734Z,81.94
2022-09-13T08:18:55.030Z,82.16
2022-09-13T08:21:56.419Z,82.21
2022-09-13T08:24:57.798Z,81.89
2022-09-13T08:27:59.229Z,81.22
2022-09-13T08:31:11.658Z,81.01
2022-09-13T08:34:15.067Z,80.54
2022-09-13T08:37:16.483Z,80.80
2022-09-13T08:40:17.978Z,81.01
2022-09-13T08:43:48.611Z,80.30
2022-09-13T08:46:50.977Z,79.13
2022-09-13T08:50:00.042Z,79.03
2022-09-13T08:53:26.332Z,78.69
2022-09-13T08:56:50.952Z,77.99
2022-09-13T09:00:07.908Z,73.36
2022-09-13T09:03:38.437Z,72.15
2022-09-13T09:06:40.093Z,73.90
2022-09-13T09:09:53.735Z,71.64
2022-09-13T09:12:59.521Z,70.92
2022-09-13T09:16:30.422Z,69.83
2022-09-13T09:19:36.309Z,69.56
2022-09-13T09:22:37.807Z,69.26
2022-09-13T09:25:39.440Z,70.02
2022-09-13T09:28:40.822Z,69.72
2022-09-13T09:32:03.275Z,68.87
2022-09-13T09:35:16.000Z,68.35
2022-09-13T09:38:23.170Z,68.17
2022-09-13T09:41:31.527Z,66.50
2022-09-13T09:44:34.447Z,67.92
2022-09-13T09:47:46.012Z,66.97
2022-09-13T09:50:51.776Z,66.03
2022-09-13T09:54:01.889Z,65.50
2022-09-13T09:57:03.562Z,66.68
2022-09-13T10:00:12.610Z,67.10
2022-09-13T10:03:19.784Z,66.72
2022-09-13T10:06:27.624Z,65.73
2022-09-13T10:09:29.054Z,66.44
2022-09-13T10:12:34.206Z,66.94
2022-09-13T10:15:35.791Z,65.92
2022-09-13T10:18:44.558Z,64.26
2022-09-13T10:22:00.045Z,66.39
2022-09-13T10:25:29.657Z,65.45
2022-09-13T10:28:34.845Z,66.82
2022-09-13T10:31:44.057Z,66.53
2022-09-13T10:34:46.544Z,66.45
2022-09-13T10:37:48.045Z,65.21
2022-09-13T10:40:49.434Z,64.71
2022-09-13T10:44:09.608Z,63.43
2022-09-13T10:47:19.783Z,63.26
2022-09-13T10:50:24.605Z,64.43
2022-09-13T10:53:41.200Z,65.66
2022-09-13T10:56:46.078Z,64.25
2022-09-13T10:59:54.625Z,63.38
2022-09-13T11:03:13.400Z,62.47
2022-09-13T11:06:33.062Z,62.16
2022-09-13T11:09:37.961Z,61.38
2022-09-13T11:12:46.424Z,62.18
2022-09-13T11:15:57.775Z,63.54
2022-09-13T11:19:14.693Z,62.31
2022-09-13T11:22:25.406Z,61.68
2022-09-13T11:25:40.308Z,62.99
2022-09-13T11:29:00.329Z,63.11
2022-09-13T11:32:07.546Z,62.94
2022-09-13T11:35:27.781Z,63.50
2022-09-13T11:38:49.614Z,63.11
2022-09-13T11:42:01.061Z,62.07
2022-09-13T11:45:23.993Z,61.71
2022-09-13T11:48:33.161Z,60.59
2022-09-13T11:51:57.884Z,61.63
2022-09-13T11:54:59.230Z,59.71
2022-09-13T11:58:15.460Z,61.51
2022-09-13T12:01:27.498Z,59.40
2022-09-13T12:04:38.642Z,57.32
2022-09-13T12:07:51.405Z,57.78
2022-09-13T12:11:18.843Z,57.22
2022-09-13T12:14:25.565Z,57.67
2022-09-13T12:17:40.352Z,58.94
2022-09-13T12:20:58.854Z,58.47
2022-09-13T12:24:00.173Z,56.57
2022-09-13T12:27:11.791Z,56.90
2022-09-13T12:30:17.400Z,56.95
2022-09-13T12:33:19.715Z,56.74
2022-09-13T12:36:39.429Z,57.59
2022-09-13T12:40:09.606Z,57.88
2022-09-13T12:43:14.006Z,58.48
2022-09-13T12:46:26.827Z,59.09
2022-09-13T12:49:33.949Z,56.25
2022-09-13T12:52:52.018Z,56.00
2022-09-13T12:56:31.861Z,55.61
2022-09-13T13:00:07.956Z,57.17
2022-09-13T13:03:11.862Z,56.64
2022-09-13T13:06:35.157Z,56.02
2022-09-13T13:09:42.405Z,55.05
2022-09-13T13:12:43.844Z,56.43
2022-09-13T13:15:49.749Z,55.13
2022-09-13T13:18:54.124Z,54.87
2022-09-13T13:21:55.640Z,54.67
2022-09-13T13:24:57.146Z,53.82
2022-09-13T13:27:59.083Z,53.64
2022-09-13T13:31:00.703Z,54.29
2022-09-13T13:34:14.320Z,53.61
2022-09-13T13:37:15.637Z,54.02
2022-09-13T13:40:21.599Z,54.48
2022-09-13T13:43:32.113Z,54.86
2022-09-13T13:46:33.629Z,54.21
2022-09-13T13:49:40.978Z,54.23
2022-09-13T13:52:48.654Z,54.21
2022-09-13T13:56:07.569Z,54.57
2022-09-13T13:59:16.346Z,54.23
2022-09-13T14:02:26.054Z,53.84
2022-09-13T14:05:49.931Z,54.65
2022-09-13T14:09:15.763Z,53.72
2022-09-13T14:12:36.976Z,55.51
2022-09-13T14:15:48.175Z,55.27
2022-09-13T14:19:17.442Z,54.39
2022-09-13T14:22:26.523Z,53.76
2022-09-13T14:25:28.452Z,54.52
2022-09-13T14:28:32.183Z,54.72
2022-09-13T14:31:33.806Z,53.37
2022-09-13T14:34:38.666Z,54.48
2022-09-13T14:37:40.304Z,53.70
2022-09-13T14:40:41.778Z,52.70
2022-09-13T14:43:45.231Z,53.98
2022-09-13T14:46:54.444Z,53.57
2022-09-13T14:50:22.249Z,52.07
2022-09-13T14:53:34.182Z,53.37
2022-09-13T14:56:45.268Z,53.26
2022-09-13T14:59:50.112Z,54.44
2022-09-13T15:02:54.533Z,53.55
2022-09-13T15:05:58.505Z,53.90
2022-09-13T15:09:12.199Z,54.70
2022-09-13T15:12:28.222Z,54.61
2022-09-13T15:15:36.171Z,55.08
2022-09-13T15:18:37.589Z,54.42
2022-09-13T15:21:39.033Z,54.94
2022-09-13T15:24:46.280Z,55.11
2022-09-13T15:27:48.744Z,55.02
2022-09-13T15:30:51.519Z,54.49
2022-09-13T15:34:17.927Z,54.80
2022-09-13T15:37:29.361Z,55.48
2022-09-13T15:40:42.888Z,55.96
2022-09-13T15:43:44.974Z,55.51
2022-09-13T15:47:10.971Z,54.60
2022-09-13T15:50:20.856Z,54.68
2022-09-13T15:53:22.234Z,54.33
2022-09-13T15:56:35.395Z,53.15
2022-09-13T15:59:36.772Z,54.21
2022-09-13T16:02:38.204Z,54.15
2022-09-13T16:05:41.922Z,53.24
2022-09-13T16:08:43.347Z,53.72
2022-09-13T16:11:46.102Z,53.45
2022-09-13T16:14:47.624Z,53.90
2022-09-13T16:17:49.051Z,54.15
2022-09-13T16:20:50.945Z,54.61
2022-09-13T16:23:52.303Z,54.82
2022-09-13T16:26:53.849Z,54.60
2022-09-13T16:29:55.220Z,55.00
2022-09-13T16:32:56.727Z,54.58
2022-09-13T16:36:02.161Z,54.94
2022-09-13T16:39:04.754Z,55.09
2022-09-13T16:42:06.594Z,54.44
2022-09-13T16:45:10.220Z,54.82
2022-09-13T16:48:12.017Z,54.71
2022-09-13T16:51:13.414Z,55.42
2022-09-13T16:54:14.825Z,55.58
2022-09-13T16:57:16.280Z,56.06
2022-09-13T17:00:19.961Z,56.57
2022-09-13T17:03:21.506Z,55.87
2022-09-13T17:06:24.535Z,56.08
2022-09-13T17:09:30.793Z,55.54
2022-09-13T17:12:32.945Z,56.68
2022-09-13T17:15:39.090Z,56.51
2022-09-13T17:18:40.689Z,56.98
2022-09-13T17:21:42.818Z,57.50
2022-09-13T17:24:44.648Z,57.08
2022-09-13T17:27:46.034Z,57.47
2022-09-13T17:30:47.468Z,58.31
2022-09-13T17:33:49.875Z,59.06
2022-09-13T17:36:52.248Z,59.65
2022-09-13T17:39:53.694Z,60.42
2022-09-13T17:42:55.406Z,60.91
2022-09-13T17:45:57.357Z,61.62
2022-09-13T17:48:59.812Z,62.71
2022-09-13T17:52:02.112Z,63.74
2022-09-13T17:55:04.640Z,64.66
2022-09-13T17:58:06.025Z,65.85
2022-09-13T18:01:09.538Z,66.56
2022-09-13T18:04:12.361Z,67.39
2022-09-13T18:07:13.780Z,68.75
2022-09-13T18:10:32.568Z,70.38
2022-09-13T18:13:37.416Z,71.65
2022-09-13T18:16:38.884Z,71.95
2022-09-13T18:19:46.298Z,74.00
2022-09-13T18:22:48.272Z,74.71
2022-09-13T18:26:03.015Z,74.83
2022-09-13T18:29:09.544Z,75.51
2022-09-13T18:32:10.969Z,76.51
2022-09-13T18:35:12.339Z,75.76
2022-09-13T18:38:13.833Z,76.18
2022-09-13T18:41:18.062Z,76.96
2022-09-13T18:44:19.646Z,79.07
2022-09-13T18:47:21.103Z,81.02
2022-09-13T18:50:22.463Z,81.13
2022-09-13T18:53:34.130Z,80.46
2022-09-13T18:56:36.538Z,80.57
2022-09-13T18:59:37.905Z,80.76
2022-09-13T19:02:56.590Z,80.29
2022-09-13T19:06:20.089Z,81.73
2022-09-13T19:09:22.777Z,83.38
2022-09-13T19:12:24.303Z,84.89
2022-09-13T19:15:25.817Z,85.63
2022-09-13T19:18:28.197Z,86.70
2022-09-13T19:21:31.685Z,85.99
2022-09-13T19:24:33.721Z,87.91
2022-09-13T19:27:35.125Z,87.39
2022-09-13T19:30:36.534Z,86.03
2022-09-13T19:33:39.538Z,87.00
2022-09-13T19:36:42.895Z,88.52
2022-09-13T19:39:45.512Z,89.14
2022-09-13T19:42:46.985Z,89.39
2022-09-13T19:46:05.186Z,88.52
2022-09-13T19:49:08.349Z,88.62
2022-09-13T19:52:09.831Z,88.03
2022-09-13T19:55:11.266Z,89.65
2022-09-13T19:58:13.856Z,87.61
2022-09-13T20:01:21.103Z,88.76
2022-09-13T20:04:23.598Z,88.24
2022-09-13T20:07:25.277Z,89.51
2022-09-13T20:10:27.268Z,90.35
2022-09-13T20:13:28.624Z,88.73
2022-09-13T20:16:33.673Z,86.72
2022-09-13T20:19:46.412Z,86.82
2022-09-13T20:22:51.011Z,88.75
2022-09-13T20:25:52.647Z,89.29
2022-09-13T20:28:59.958Z,89.08
2022-09-13T20:32:02.186Z,88.70
2022-09-13T20:35:03.865Z,89.93
2022-09-13T20:38:05.523Z,90.49
2022-09-13T20:41:10.450Z,90.34
2022-09-13T20:44:12.092Z,90.13
2022-09-13T20:47:13.466Z,90.04
2022-09-13T20:50:15.224Z,91.81
2022-09-13T20:53:16.589Z,92.14
2022-09-13T20:56:18.653Z,91.83
2022-09-13T20:59:21.208Z,92.42
2022-09-13T21:02:22.605Z,92.34
2022-09-13T21:05:24.140Z,92.52
2022-09-13T21:08:43.859Z,93.01
2022-09-13T21:11:45.326Z,94.03
2022-09-13T21:14:46.745Z,95.63
2022-09-13T21:17:48.121Z,95.85
2022-09-13T21:21:00.483Z,96.28
2022-09-13T21:24:04.252Z,96.75
2022-09-13T21:27:06.833Z,97.24
2022-09-13T21:30:08.671Z,97.13
2022-09-13T21:33:10.316Z,96.02
2022-09-13T21:36:13.010Z,97.44
2022-09-13T21:39:16.267Z,97.75
2022-09-13T21:42:17.737Z,97.26
2022-09-13T21:45:19.105Z,97.48
2022-09-13T21:48:22.150Z,97.34
2022-09-13T21:51:35.210Z,99.32
2022-09-13T21:54:36.665Z,99.83
2022-09-13T21:57:38.033Z,98.52
2022-09-13T22:00:39.518Z,98.99
2022-09-13T22:03:43.750Z,98.81
2022-09-13T22:06:46.932Z,99.42
2022-09-13T22:09:48.283Z,99.34
2022-09-13T22:12:49.646Z,99.45
2022-09-13T22:15:51.033Z,99.22
2022-09-13T22:18:55.671Z,99.12
2022-09-13T22:21:59.191Z,99.20
2022-09-13T22:25:00.903Z,99.86
2022-09-13T22:28:02.543Z,100.00
2022-09-13T22:31:19.008Z,99.52
2022-09-13T22:34:23.909Z,98.57
2022-09-13T22:37:25.321Z,99.41
2022-09-13T22:40:27.509Z,99.64
2022-09-13T22:43:29.019Z,100.00
2022-09-13T22:46:34.299Z,100.00
2022-09-13T22:49:35.675Z,100.00
2022-09-13T22:52:37.051Z,100.00
2022-09-13T22:55:38.409Z,100.00
2022-09-13T22:58:40.448Z,100.00
2022-09-13T23:01:42.064Z,100.00
2022-09-13T23:04:43.489Z,97.33
2022-09-13T23:07:44.858Z,92.85
2022-09-13T23:10:46.786Z,91.27
2022-09-13T23:13:49.963Z,89.85
2022-09-13T23:16:52.229Z,89.05
2022-09-13T23:19:53.676Z,86.84
2022-09-13T23:22:55.027Z,85.69
2022-09-13T23:26:06.436Z,84.90
2022-09-13T23:29:15.369Z,84.31
2022-09-13T23:32:16.938Z,84.97
2022-09-13T23:35:18.430Z,85.47
2022-09-13T23:38:19.865Z,85.47
2022-09-13T23:41:22.285Z,85.33
2022-09-13T23:44:24.185Z,85.56
2022-09-13T23:47:25.563Z,88.38
2022-09-13T23:50:26.927Z,91.34
2022-09-13T23:53:28.606Z,92.90
2022-09-13T23:56:31.237Z,97.21
2022-09-13T23:59:32.823Z,100.00
